createdAt,value
2022-12-19T00:00:35.889Z,41.27
2022-12-19T00:03:03.916Z,40.30
2022-12-19T00:05:31.797Z,41.60
2022-12-19T00:07:59.560Z,35.47
2022-12-19T00:10:35.881Z,34.63
2022-12-19T00:13:03.637Z,40.23
2022-12-19T00:15:34.087Z,40.60
2022-12-19T00:18:01.916Z,41.03
2022-12-19T00:20:29.742Z,47.67
2022-12-19T00:22:58.269Z,41.40
2022-12-19T00:25:26.042Z,41.33
2022-12-19T00:27:54.128Z,39.73
2022-12-19T00:30:21.925Z,45.50
2022-12-19T00:32:50.146Z,39.37
2022-12-19T00:35:17.905Z,37.63
2022-12-19T00:37:49.237Z,39.30
2022-12-19T00:40:17.699Z,36.00
2022-12-19T00:42:51.652Z,38.17
2022-12-19T00:45:22.028Z,29.30
2022-12-19T00:47:49.793Z,39.37
2022-12-19T00:50:17.629Z,38.90
2022-12-19T00:52:45.512Z,35.37
2022-12-19T00:55:18.544Z,36.13
2022-12-19T00:57:47.275Z,37.08
2022-12-19T01:00:16.742Z,34.43
2022-12-19T01:02:45.354Z,38.47
2022-12-19T01:05:13.157Z,39.73
2022-12-19T01:07:42.296Z,36.10
2022-12-19T01:10:10.503Z,39.63
2022-12-19T01:12:56.366Z,35.00
2022-12-19T01:15:24.089Z,37.50
2022-12-19T01:17:51.908Z,36.77
2022-12-19T01:20:29.011Z,34.90
2022-12-19T01:23:00.079Z,36.03
2022-12-19T01:25:28.643Z,36.70
2022-12-19T01:27:57.263Z,37.67
2022-12-19T01:30:26.011Z,39.83
2022-12-19T01:32:54.033Z,38.27
2022-12-19T01:35:22.861Z,35.63
2022-12-19T01:38:02.278Z,38.97
2022-12-19T01:40:36.623Z,32.60
2022-12-19T01:43:04.894Z,37.30
2022-12-19T01:45:37.406Z,35.73
2022-12-19T01:48:18.395Z,35.50
2022-12-19T01:51:11.291Z,33.53
2022-12-19T01:53:49.739Z,34.80
2022-12-19T01:56:28.204Z,35.67
2022-12-19T01:59:05.964Z,35.40
2022-12-19T02:01:47.060Z,30.87
2022-12-19T02:04:20.367Z,36.00
2022-12-19T02:06:49.948Z,41.57
2022-12-19T02:09:18.283Z,35.73
2022-12-19T02:11:46.205Z,35.37
2022-12-19T02:14:13.983Z,35.53
2022-12-19T02:17:20.808Z,36.33
2022-12-19T02:20:45.793Z,29.60
2022-12-19T02:23:54.756Z,36.10
2022-12-19T02:26:48.199Z,36.17
2022-12-19T02:29:43.805Z,34.00
2022-12-19T02:32:31.713Z,34.77
2022-12-19T02:35:33.511Z,37.30
2022-12-19T02:38:35.875Z,36.67
2022-12-19T02:41:28.321Z,38.20
2022-12-19T02:44:00.100Z,38.30
2022-12-19T02:46:31.165Z,37.40
2022-12-19T02:48:59.269Z,33.53
2022-12-19T02:51:27.125Z,33.60
2022-12-19T02:53:54.951Z,40.43
2022-12-19T02:56:54.797Z,36.80
2022-12-19T02:59:43.821Z,36.23
2022-12-19T03:03:00.528Z,34.93
2022-12-19T03:05:50.496Z,31.10
2022-12-19T03:08:38.035Z,40.80
2022-12-19T03:11:11.683Z,38.93
2022-12-19T03:13:58.626Z,39.33
2022-12-19T03:16:26.845Z,33.77
2022-12-19T03:18:56.318Z,33.83
2022-12-19T03:21:34.602Z,33.33
2022-12-19T03:24:03.907Z,38.23
2022-12-19T03:26:38.064Z,31.63
2022-12-19T03:29:17.438Z,36.63
2022-12-19T03:31:47.058Z,43.13
2022-12-19T03:34:32.728Z,37.40
2022-12-19T03:37:05.222Z,38.87
2022-12-19T03:39:34.465Z,35.10
2022-12-19T03:42:22.388Z,35.50
2022-12-19T03:44:51.581Z,34.80
2022-12-19T03:47:28.171Z,37.40
2022-12-19T03:49:56.032Z,34.17
2022-12-19T03:52:38.758Z,32.63
2022-12-19T03:55:23.797Z,33.07
2022-12-19T03:58:12.426Z,36.17
2022-12-19T04:00:47.334Z,30.20
2022-12-19T04:03:18.357Z,28.70
2022-12-19T04:05:48.533Z,26.87
2022-12-19T04:08:17.155Z,27.37
2022-12-19T04:10:57.678Z,32.23
2022-12-19T04:13:41.714Z,26.60
2022-12-19T04:16:18.322Z,27.27
2022-12-19T04:19:00.133Z,26.77
2022-12-19T04:21:35.073Z,25.63
2022-12-19T04:24:14.245Z,26.40
2022-12-19T04:26:47.032Z,30.60
2022-12-19T04:29:16.695Z,20.80
2022-12-19T04:31:45.517Z,24.07
2022-12-19T04:34:14.419Z,25.23
2022-12-19T04:36:42.173Z,25.00
2022-12-19T04:39:09.933Z,28.93
2022-12-19T04:41:37.702Z,26.57
2022-12-19T04:44:05.635Z,27.40
2022-12-19T04:46:33.454Z,25.93
2022-12-19T04:49:01.753Z,22.23
2022-12-19T04:51:29.509Z,22.83
2022-12-19T04:53:57.573Z,23.57
2022-12-19T04:56:25.333Z,24.23
2022-12-19T04:59:00.593Z,23.77
2022-12-19T05:01:28.584Z,24.90
2022-12-19T05:04:01.243Z,22.63
2022-12-19T05:06:32.282Z,25.10
2022-12-19T05:09:00.086Z,24.10
2022-12-19T05:11:27.844Z,21.60
2022-12-19T05:13:55.618Z,22.23
2022-12-19T05:16:23.486Z,18.87
2022-12-19T05:18:53.018Z,37.10
2022-12-19T05:21:22.548Z,47.30
2022-12-19T05:23:51.424Z,58.90
2022-12-19T05:26:19.555Z,29.10
2022-12-19T05:28:47.450Z,28.97
2022-12-19T05:31:19.899Z,22.60
2022-12-19T05:33:48.857Z,23.43
2022-12-19T05:36:17.720Z,27.23
2022-12-19T05:38:45.631Z,24.87
2022-12-19T05:41:16.756Z,27.77
2022-12-19T05:43:49.604Z,23.17
2022-12-19T05:46:18.129Z,25.37
2022-12-19T05:48:46.126Z,22.67
2022-12-19T05:51:14.413Z,29.90
2022-12-19T05:53:43.425Z,23.97
2022-12-19T05:56:14.742Z,23.17
2022-12-19T05:58:43.632Z,23.83
2022-12-19T06:01:24.589Z,20.60
2022-12-19T06:03:52.886Z,22.00
2022-12-19T06:06:24.202Z,22.43
2022-12-19T06:08:59.844Z,21.33
2022-12-19T06:11:27.715Z,21.57
2022-12-19T06:13:55.547Z,25.37
2022-12-19T06:16:23.791Z,23.57
2022-12-19T06:18:51.810Z,19.03
2022-12-19T06:21:22.504Z,25.23
2022-12-19T06:23:50.620Z,26.20
2022-12-19T06:26:20.722Z,38.17
2022-12-19T06:28:50.652Z,42.90
2022-12-19T06:31:20.794Z,64.47
2022-12-19T06:33:48.839Z,71.27
2022-12-19T06:36:22.059Z,56.57
2022-12-19T06:38:51.253Z,74.05
2022-12-19T06:41:38.509Z,38.17
2022-12-19T06:44:09.138Z,26.03
2022-12-19T06:46:37.812Z,24.37
2022-12-19T06:49:06.092Z,28.20
2022-12-19T06:51:34.325Z,24.53
2022-12-19T06:54:02.245Z,19.80
2022-12-19T06:56:36.238Z,17.67
2022-12-19T07:01:53.005Z,16.77
2022-12-19T07:04:45.124Z,19.17
2022-12-19T07:07:13.002Z,17.87
2022-12-19T07:09:41.114Z,20.63
2022-12-19T07:12:08.962Z,20.97
2022-12-19T07:14:36.749Z,16.20
2022-12-19T07:17:06.318Z,22.17
2022-12-19T07:19:35.429Z,20.17
2022-12-19T07:22:05.037Z,19.23
2022-12-19T07:24:35.224Z,18.23
2022-12-19T07:27:03.755Z,20.60
2022-12-19T07:29:31.508Z,17.43
2022-12-19T07:31:59.288Z,17.60
2022-12-19T07:34:27.237Z,15.17
2022-12-19T07:36:55.000Z,13.47
2022-12-19T07:39:22.772Z,16.13
2022-12-19T07:41:51.444Z,17.73
2022-12-19T07:44:30.982Z,17.70
2022-12-19T07:46:58.769Z,19.03
2022-12-19T07:49:26.481Z,13.90
2022-12-19T07:51:54.176Z,15.57
2022-12-19T07:54:22.011Z,16.60
2022-12-19T07:56:49.738Z,17.93
2022-12-19T07:59:17.646Z,16.40
2022-12-19T08:01:45.483Z,15.07
2022-12-19T08:04:13.711Z,14.17
2022-12-19T08:06:41.724Z,15.33
2022-12-19T08:09:09.972Z,15.20
2022-12-19T08:11:37.713Z,20.10
2022-12-19T08:14:05.753Z,19.10
2022-12-19T08:16:49.313Z,16.83
2022-12-19T08:19:24.685Z,16.37
2022-12-19T08:21:55.200Z,18.30
2022-12-19T08:24:22.959Z,18.37
2022-12-19T08:26:50.663Z,14.70
2022-12-19T08:29:18.403Z,12.67
2022-12-19T08:31:46.200Z,13.30
2022-12-19T08:34:14.053Z,13.87
2022-12-19T08:36:42.004Z,12.43
2022-12-19T08:39:09.855Z,12.73
2022-12-19T08:41:37.627Z,13.40
2022-12-19T08:44:05.527Z,13.47
2022-12-19T08:46:33.322Z,8.63
2022-12-19T08:49:01.836Z,14.37
2022-12-19T08:51:29.829Z,10.57
2022-12-19T08:53:59.821Z,12.30
2022-12-19T08:56:27.948Z,10.50
2022-12-19T08:58:58.420Z,10.83
2022-12-19T09:01:29.629Z,13.03
2022-12-19T09:04:59.784Z,12.77
2022-12-19T09:06:47.685Z,12.43
2022-12-19T09:09:15.456Z,10.27
2022-12-19T09:11:47.899Z,11.40
2022-12-19T09:14:20.824Z,14.20
2022-12-19T09:16:49.516Z,10.95
2022-12-19T09:19:17.428Z,11.50
2022-12-19T09:21:45.485Z,13.80
2022-12-19T09:24:13.247Z,14.83
2022-12-19T09:26:42.270Z,13.70
2022-12-19T09:29:19.924Z,15.43
2022-12-19T09:31:55.576Z,15.03
2022-12-19T09:34:37.853Z,17.60
2022-12-19T09:37:16.864Z,13.57
2022-12-19T09:39:49.263Z,14.67
2022-12-19T09:42:54.364Z,15.97
2022-12-19T09:46:18.298Z,15.80
2022-12-19T09:48:54.140Z,19.40
2022-12-19T09:51:50.151Z,23.67
2022-12-19T09:54:26.457Z,62.57
2022-12-19T09:57:01.321Z,60.13
2022-12-19T09:59:41.578Z,71.53
2022-12-19T10:02:45.414Z,47.00
2022-12-19T10:07:06.774Z,64.77
2022-12-19T10:09:20.269Z,21.50
2022-12-19T10:12:43.242Z,17.23
2022-12-19T10:15:43.122Z,14.17
2022-12-19T10:18:30.825Z,13.73
2022-12-19T10:21:58.908Z,17.33
2022-12-19T10:25:07.606Z,16.37
2022-12-19T10:28:01.480Z,16.73
2022-12-19T10:30:36.672Z,14.60
2022-12-19T10:33:35.023Z,12.70
2022-12-19T10:36:09.157Z,15.73
2022-12-19T10:39:06.656Z,12.87
2022-12-19T10:41:40.732Z,13.50
2022-12-19T10:44:13.778Z,12.23
2022-12-19T10:46:49.816Z,11.83
2022-12-19T10:49:27.554Z,12.17
2022-12-19T10:52:08.809Z,12.17
2022-12-19T10:54:39.666Z,13.43
2022-12-19T10:57:22.943Z,12.13
2022-12-19T11:00:15.852Z,13.33
2022-12-19T11:02:48.289Z,13.77
2022-12-19T11:05:52.640Z,14.23
2022-12-19T11:08:31.413Z,25.83
2022-12-19T11:17:12.459Z,15.20
2022-12-19T11:21:57.290Z,16.33
2022-12-19T11:29:15.521Z,9.87
2022-12-19T11:29:33.289Z,13.00
2022-12-19T11:30:35.943Z,13.87
2022-12-19T11:30:59.584Z,12.67
2022-12-19T11:34:23.825Z,15.45
2022-12-19T11:37:27.428Z,11.90
2022-12-19T11:40:15.882Z,13.30
2022-12-19T11:46:22.864Z,13.93
2022-12-19T11:49:17.609Z,13.53
2022-12-19T11:56:03.767Z,11.90
2022-12-19T11:58:31.535Z,12.03
2022-12-19T12:01:41.348Z,10.53
2022-12-19T12:04:49.599Z,12.07
2022-12-19T12:07:40.678Z,13.77
2022-12-19T12:14:12.091Z,12.93
2022-12-19T12:24:07.079Z,14.17
2022-12-19T12:31:01.216Z,11.83
2022-12-19T12:31:04.640Z,12.03
2022-12-19T12:31:39.133Z,12.13
2022-12-19T12:31:43.907Z,11.50
2022-12-19T12:35:13.744Z,11.57
2022-12-19T12:35:55.106Z,10.13
2022-12-19T12:39:45.171Z,13.30
2022-12-19T12:42:40.159Z,13.37
2022-12-19T12:45:34.071Z,11.00
2022-12-19T12:48:01.857Z,10.63
2022-12-19T12:50:31.727Z,12.27
2022-12-19T12:53:07.120Z,15.00
2022-12-19T12:55:40.262Z,13.53
2022-12-19T12:58:50.223Z,10.05
2022-12-19T13:01:40.190Z,8.37
2022-12-19T13:04:11.049Z,9.30
2022-12-19T13:07:00.400Z,10.07
2022-12-19T13:09:31.423Z,10.33
2022-12-19T13:12:46.521Z,12.90
2022-12-19T13:15:29.988Z,10.23
2022-12-19T13:18:01.454Z,8.95
2022-12-19T13:20:29.127Z,9.00
2022-12-19T13:23:03.959Z,8.13
2022-12-19T13:25:34.694Z,9.23
2022-12-19T13:28:02.322Z,12.47
2022-12-19T13:30:54.264Z,11.60
2022-12-19T13:33:21.959Z,9.97
2022-12-19T13:39:02.482Z,9.97
2022-12-19T13:40:01.584Z,9.37
2022-12-19T13:42:02.007Z,10.53
2022-12-19T13:44:31.997Z,11.07
2022-12-19T13:46:59.789Z,11.80
2022-12-19T13:49:35.172Z,10.73
2022-12-19T13:52:05.242Z,11.90
2022-12-19T13:54:49.975Z,10.73
2022-12-19T13:57:27.119Z,11.10
2022-12-19T14:00:03.428Z,9.50
2022-12-19T14:02:47.556Z,11.17
2022-12-19T14:06:17.778Z,9.50
2022-12-19T14:08:27.935Z,10.53
2022-12-19T14:11:38.456Z,11.00
2022-12-19T14:14:19.280Z,9.10
2022-12-19T14:16:50.509Z,20.33
2022-12-19T14:19:25.502Z,8.90
2022-12-19T14:22:11.741Z,6.70
2022-12-19T14:24:41.903Z,6.40
2022-12-19T14:28:26.431Z,8.37
2022-12-19T14:30:30.005Z,8.33
2022-12-19T14:33:47.500Z,13.35
2022-12-19T14:36:30.760Z,16.57
2022-12-19T14:39:25.485Z,14.20
2022-12-19T14:42:11.480Z,11.77
2022-12-19T14:51:52.095Z,8.70
2022-12-19T14:52:08.423Z,10.67
2022-12-19T14:54:38.006Z,10.20
2022-12-19T14:54:51.480Z,9.17
2022-12-19T14:56:53.915Z,8.97
2022-12-19T14:59:45.537Z,10.03
2022-12-19T15:02:51.643Z,7.38
2022-12-19T15:05:20.943Z,14.17
2022-12-19T15:07:52.050Z,15.77
2022-12-19T15:11:04.925Z,15.20
2022-12-19T15:14:46.593Z,13.03
2022-12-19T15:16:37.672Z,15.17
2022-12-19T15:19:13.048Z,7.73
2022-12-19T15:21:40.834Z,11.73
2022-12-19T15:24:09.008Z,10.20
2022-12-19T15:26:48.249Z,8.63
2022-12-19T15:29:21.664Z,10.93
2022-12-19T15:34:34.848Z,9.60
2022-12-19T15:37:03.913Z,7.60
2022-12-19T15:39:31.792Z,9.17
2022-12-19T15:42:01.433Z,11.07
2022-12-19T15:44:41.980Z,8.80
2022-12-19T15:47:30.403Z,8.30
2022-12-19T15:50:02.888Z,9.27
2022-12-19T15:52:30.879Z,11.07
2022-12-19T15:54:58.661Z,13.67
2022-12-19T15:57:42.480Z,8.57
2022-12-19T16:00:20.228Z,9.30
2022-12-19T16:05:36.072Z,9.93
2022-12-19T16:08:11.144Z,9.10
2022-12-19T16:10:39.693Z,10.63
2022-12-19T16:13:21.004Z,10.33
2022-12-19T16:15:50.279Z,10.40
2022-12-19T16:18:19.297Z,12.07
2022-12-19T16:20:48.052Z,13.53
2022-12-19T16:23:16.334Z,11.40
2022-12-19T16:25:47.731Z,12.10
2022-12-19T16:28:33.920Z,10.37
2022-12-19T16:31:16.191Z,11.27
2022-12-19T16:33:44.179Z,9.93
2022-12-19T16:36:11.909Z,15.03
2022-12-19T16:38:39.685Z,12.90
2022-12-19T16:41:23.485Z,12.73
2022-12-19T16:43:52.682Z,12.35
2022-12-19T16:46:23.776Z,14.37
2022-12-19T16:48:51.646Z,11.47
2022-12-19T16:51:23.453Z,12.67
2022-12-19T16:53:54.730Z,17.30
2022-12-19T16:56:40.639Z,12.43
2022-12-19T16:59:47.064Z,13.93
2022-12-19T17:02:43.405Z,17.87
2022-12-19T17:05:22.256Z,23.57
2022-12-19T17:07:51.432Z,15.77
2022-12-19T17:10:26.423Z,13.43
2022-12-19T17:12:56.735Z,13.17
2022-12-19T17:15:36.588Z,23.87
2022-12-19T17:18:16.897Z,18.73
2022-12-19T17:20:46.280Z,19.30
2022-12-19T17:23:21.930Z,11.47
2022-12-19T17:25:50.311Z,13.13
2022-12-19T17:28:18.455Z,10.37
2022-12-19T17:30:54.364Z,12.10
2022-12-19T17:33:26.093Z,10.03
2022-12-19T17:35:54.341Z,9.63
2022-12-19T17:38:22.071Z,12.93
2022-12-19T17:40:49.838Z,11.43
2022-12-19T17:43:17.970Z,10.33
2022-12-19T17:45:45.811Z,8.30
2022-12-19T17:48:33.156Z,10.77
2022-12-19T17:51:00.949Z,9.00
2022-12-19T17:53:28.709Z,11.67
2022-12-19T17:55:56.426Z,8.97
2022-12-19T17:58:24.164Z,9.93
2022-12-19T18:00:52.648Z,9.37
2022-12-19T18:03:25.332Z,10.73
2022-12-19T18:05:55.682Z,29.33
2022-12-19T18:08:33.352Z,16.70
2022-12-19T18:11:04.965Z,12.10
2022-12-19T18:13:32.722Z,12.67
2022-12-19T18:16:06.013Z,10.50
2022-12-19T18:18:36.926Z,10.40
2022-12-19T18:21:05.428Z,9.70
2022-12-19T18:23:33.713Z,9.43
2022-12-19T18:26:02.662Z,9.87
2022-12-19T18:28:31.004Z,8.50
2022-12-19T18:31:06.940Z,8.63
2022-12-19T18:33:41.190Z,11.20
2022-12-19T18:36:24.760Z,10.10
2022-12-19T18:38:54.128Z,8.98
2022-12-19T18:41:23.415Z,9.67
2022-12-19T18:43:51.283Z,9.87
2022-12-19T18:46:28.372Z,10.17
2022-12-19T18:48:56.343Z,10.57
2022-12-19T18:51:25.700Z,9.67
2022-12-19T18:53:53.690Z,9.17
2022-12-19T18:56:21.638Z,23.53
2022-12-19T18:58:49.710Z,16.83
2022-12-19T19:01:21.853Z,12.77
2022-12-19T19:03:55.448Z,11.43
2022-12-19T19:06:27.800Z,11.25
2022-12-19T19:08:57.108Z,8.43
2022-12-19T19:11:43.405Z,8.43
2022-12-19T19:14:11.658Z,9.93
2022-12-19T19:16:40.143Z,11.73
2022-12-19T19:19:14.455Z,9.53
2022-12-19T19:21:42.843Z,9.80
2022-12-19T19:24:18.247Z,12.80
2022-12-19T19:26:46.083Z,12.47
2022-12-19T19:29:14.996Z,11.90
2022-12-19T19:31:46.612Z,10.57
2022-12-19T19:34:25.569Z,11.47
2022-12-19T19:36:57.094Z,11.13
2022-12-19T19:39:25.467Z,11.60
2022-12-19T19:41:53.767Z,8.90
2022-12-19T19:44:21.526Z,11.37
2022-12-19T19:46:49.397Z,11.23
2022-12-19T19:49:17.279Z,11.10
2022-12-19T19:51:45.054Z,10.60
2022-12-19T19:54:12.853Z,9.83
2022-12-19T19:56:40.622Z,10.73
2022-12-19T19:59:08.501Z,10.77
2022-12-19T20:01:36.423Z,9.80
2022-12-19T20:04:04.654Z,11.50
2022-12-19T20:06:32.569Z,10.37
2022-12-19T20:09:00.333Z,11.07
2022-12-19T20:11:28.104Z,9.13
2022-12-19T20:13:55.895Z,10.07
2022-12-19T20:16:23.681Z,9.63
2022-12-19T20:18:52.958Z,9.70
2022-12-19T20:21:21.769Z,9.73
2022-12-19T20:23:49.543Z,7.20
2022-12-19T20:26:18.467Z,9.63
2022-12-19T20:28:49.317Z,7.93
2022-12-19T20:31:23.995Z,7.90
2022-12-19T20:33:54.571Z,9.53
2022-12-19T20:36:23.182Z,9.70
2022-12-19T20:38:51.846Z,11.67
2022-12-19T20:41:19.799Z,12.57
2022-12-19T20:43:48.229Z,10.67
2022-12-19T20:46:19.130Z,12.97
2022-12-19T20:48:48.185Z,11.63
2022-12-19T20:51:18.255Z,9.87
2022-12-19T20:53:46.526Z,9.40
2022-12-19T20:56:18.076Z,10.47
2022-12-19T20:58:46.928Z,9.20
2022-12-19T21:01:18.889Z,9.60
2022-12-19T21:03:48.732Z,10.50
2022-12-19T21:06:20.181Z,9.30
2022-12-19T21:08:48.514Z,9.93
2022-12-19T21:11:16.636Z,13.73
2022-12-19T21:13:45.102Z,21.40
2022-12-19T21:16:17.121Z,19.40
2022-12-19T21:18:47.356Z,13.03
2022-12-19T21:21:22.692Z,10.13
2022-12-19T21:23:51.816Z,9.97
2022-12-19T21:26:21.321Z,9.30
2022-12-19T21:28:49.299Z,9.27
2022-12-19T21:31:27.763Z,8.00
2022-12-19T21:34:01.027Z,9.73
2022-12-19T21:36:30.489Z,9.93
2022-12-19T21:39:01.894Z,9.33
2022-12-19T21:41:30.790Z,10.07
2022-12-19T21:44:00.577Z,11.37
2022-12-19T21:46:33.270Z,11.30
2022-12-19T21:49:03.291Z,8.87
2022-12-19T21:51:32.633Z,9.77
2022-12-19T21:54:03.050Z,8.90
2022-12-19T21:56:31.893Z,9.57
2022-12-19T21:59:03.603Z,9.93
2022-12-19T22:01:32.560Z,8.80
2022-12-19T22:04:07.553Z,11.17
2022-12-19T22:06:37.579Z,10.93
2022-12-19T22:09:09.269Z,9.27
2022-12-19T22:11:37.520Z,11.07
2022-12-19T22:14:06.086Z,8.83
2022-12-19T22:16:35.505Z,10.70
2022-12-19T22:19:04.624Z,9.43
2022-12-19T22:21:33.610Z,9.70
2022-12-19T22:24:03.703Z,9.07
2022-12-19T22:26:32.748Z,9.03
2022-12-19T22:29:00.602Z,9.03
2022-12-19T22:31:32.606Z,10.03
2022-12-19T22:34:07.156Z,9.93
2022-12-19T22:36:36.765Z,11.67
2022-12-19T22:39:09.437Z,7.03
2022-12-19T22:41:38.649Z,8.23
2022-12-19T22:44:08.289Z,8.97
2022-12-19T22:46:37.324Z,9.53
2022-12-19T22:49:08.906Z,7.63
2022-12-19T22:51:37.204Z,11.33
2022-12-19T22:54:06.405Z,9.63
2022-12-19T22:56:35.946Z,9.50
2022-12-19T22:59:08.163Z,9.00
2022-12-19T23:01:39.742Z,10.57
2022-12-19T23:04:10.977Z,8.23
2022-12-19T23:06:39.201Z,11.07
2022-12-19T23:09:09.509Z,12.70
2022-12-19T23:11:40.504Z,12.20
2022-12-19T23:14:11.708Z,9.87
2022-12-19T23:16:39.487Z,8.37
2022-12-19T23:19:09.165Z,9.03
2022-12-19T23:21:37.593Z,14.60
2022-12-19T23:24:05.993Z,17.43
2022-12-19T23:26:37.533Z,27.53
2022-12-19T23:29:12.655Z,23.93
2022-12-19T23:31:46.661Z,22.00
2022-12-19T23:34:15.937Z,39.13
2022-12-19T23:39:32.032Z,28.87
2022-12-19T23:41:59.985Z,28.37
2022-12-19T23:44:28.047Z,33.97
2022-12-19T23:47:02.699Z,52.10
2022-12-19T23:49:33.495Z,68.43
2022-12-19T23:52:01.715Z,52.63
2022-12-19T23:54:29.651Z,39.83
2022-12-19T23:56:57.442Z,15.13
2022-12-19T23:59:25.253Z,12.10
